West Greenwich, Rhode Island
Current Conditions -  °F | °C
As of 12:51 AM on Sunday 26 Oct 2014 (Local Time) from KPVD Reporting Station
Overcast Overcast  
Wind Chill: 58°   Ceiling: 8000
Heat Index: 58°   Visibility: 10mi
Dew Point: 48°   Wind: 10mph
Humidity: 70%   Direction: 260°W
Pressure: 29.5"   Gusts: NA
Location:  41.63°N, 71.66°W
Report Text: KPVD 260451Z 26009KT 10SM BKN080 OVC095 14/09 A2950 RMK AO2 SLP991 T01440089 401890061
Loading
Personal Weather Stations






























Interactive Weather Map
Tropical Storm Tracking
New forecast layout! Learn more

10-Day Weather Forecast

Advertisements
Track Severe Weather on mobile